sensor_id;sensor_type;location;lat;lon;timestamp;P1;durP1;ratioP1;P2;durP2;ratioP2
76373;SDS011;65197;50.164;8.012;2023-07-29T00:01:49;5.13;;;3.28;;
76373;SDS011;65197;50.164;8.012;2023-07-29T00:04:14;4.82;;;3.45;;
76373;SDS011;65197;50.164;8.012;2023-07-29T00:06:40;4.85;;;3.88;;
76373;SDS011;65197;50.164;8.012;2023-07-29T00:09:05;4.30;;;3.50;;
76373;SDS011;65197;50.164;8.012;2023-07-29T00:11:31;5.50;;;3.55;;
76373;SDS011;65197;50.164;8.012;2023-07-29T00:13:58;6.30;;;3.47;;
76373;SDS011;65197;50.164;8.012;2023-07-29T00:16:27;4.28;;;3.45;;
76373;SDS011;65197;50.164;8.012;2023-07-29T00:18:52;5.28;;;3.78;;
76373;SDS011;65197;50.164;8.012;2023-07-29T00:21:18;5.05;;;3.75;;
76373;SDS011;65197;50.164;8.012;2023-07-29T00:23:43;4.80;;;3.97;;
76373;SDS011;65197;50.164;8.012;2023-07-29T00:26:09;4.63;;;3.78;;
76373;SDS011;65197;50.164;8.012;2023-07-29T00:28:34;5.72;;;4.35;;
76373;SDS011;65197;50.164;8.012;2023-07-29T00:30:59;6.30;;;4.80;;
76373;SDS011;65197;50.164;8.012;2023-07-29T00:33:25;6.13;;;4.32;;
76373;SDS011;65197;50.164;8.012;2023-07-29T00:35:50;5.97;;;4.55;;
76373;SDS011;65197;50.164;8.012;2023-07-29T00:38:16;5.80;;;4.60;;
76373;SDS011;65197;50.164;8.012;2023-07-29T00:40:41;6.63;;;5.25;;
76373;SDS011;65197;50.164;8.012;2023-07-29T00:43:07;5.93;;;4.38;;
76373;SDS011;65197;50.164;8.012;2023-07-29T00:45:32;8.13;;;4.72;;
76373;SDS011;65197;50.164;8.012;2023-07-29T00:47:59;6.85;;;4.72;;
76373;SDS011;65197;50.164;8.012;2023-07-29T00:50:25;6.13;;;4.70;;
76373;SDS011;65197;50.164;8.012;2023-07-29T00:52:53;8.48;;;5.63;;
76373;SDS011;65197;50.164;8.012;2023-07-29T00:55:19;7.65;;;5.50;;
76373;SDS011;65197;50.164;8.012;2023-07-29T00:57:44;8.00;;;5.72;;
76373;SDS011;65197;50.164;8.012;2023-07-29T01:00:13;8.85;;;6.05;;
76373;SDS011;65197;50.164;8.012;2023-07-29T01:05:15;7.38;;;5.88;;
76373;SDS011;65197;50.164;8.012;2023-07-29T01:13:06;9.70;;;6.28;;
76373;SDS011;65197;50.164;8.012;2023-07-29T01:15:49;9.88;;;6.57;;
76373;SDS011;65197;50.164;8.012;2023-07-29T01:18:29;9.32;;;6.05;;
76373;SDS011;65197;50.164;8.012;2023-07-29T01:20:58;9.68;;;6.45;;
76373;SDS011;65197;50.164;8.012;2023-07-29T01:23:26;8.50;;;6.05;;
76373;SDS011;65197;50.164;8.012;2023-07-29T01:25:54;9.10;;;6.32;;
76373;SDS011;65197;50.164;8.012;2023-07-29T01:28:19;8.20;;;6.78;;
76373;SDS011;65197;50.164;8.012;2023-07-29T01:30:45;8.15;;;6.63;;
76373;SDS011;65197;50.164;8.012;2023-07-29T01:33:18;9.20;;;7.05;;
76373;SDS011;65197;50.164;8.012;2023-07-29T01:38:19;10.00;;;7.90;;
76373;SDS011;65197;50.164;8.012;2023-07-29T01:40:49;9.57;;;7.05;;
76373;SDS011;65197;50.164;8.012;2023-07-29T01:43:16;10.02;;;7.50;;
76373;SDS011;65197;50.164;8.012;2023-07-29T01:45:43;10.82;;;7.95;;
76373;SDS011;65197;50.164;8.012;2023-07-29T01:48:09;10.90;;;8.27;;
76373;SDS011;65197;50.164;8.012;2023-07-29T01:50:35;11.15;;;8.15;;
76373;SDS011;65197;50.164;8.012;2023-07-29T01:53:00;11.75;;;9.02;;
76373;SDS011;65197;50.164;8.012;2023-07-29T01:55:25;12.80;;;9.55;;
76373;SDS011;65197;50.164;8.012;2023-07-29T01:57:51;13.20;;;9.40;;
76373;SDS011;65197;50.164;8.012;2023-07-29T02:00:17;14.93;;;10.52;;
76373;SDS011;65197;50.164;8.012;2023-07-29T02:02:43;17.42;;;9.95;;
76373;SDS011;65197;50.164;8.012;2023-07-29T02:05:08;14.27;;;10.20;;
76373;SDS011;65197;50.164;8.012;2023-07-29T02:07:34;15.82;;;10.05;;
76373;SDS011;65197;50.164;8.012;2023-07-29T02:09:59;14.18;;;9.15;;
76373;SDS011;65197;50.164;8.012;2023-07-29T02:12:25;12.32;;;9.73;;
76373;SDS011;65197;50.164;8.012;2023-07-29T02:14:50;11.35;;;8.63;;
76373;SDS011;65197;50.164;8.012;2023-07-29T02:17:15;10.50;;;7.85;;
76373;SDS011;65197;50.164;8.012;2023-07-29T02:19:41;11.50;;;9.10;;
76373;SDS011;65197;50.164;8.012;2023-07-29T02:22:06;12.63;;;8.40;;
76373;SDS011;65197;50.164;8.012;2023-07-29T02:24:31;10.95;;;8.70;;
76373;SDS011;65197;50.164;8.012;2023-07-29T02:26:57;10.90;;;8.52;;
76373;SDS011;65197;50.164;8.012;2023-07-29T02:29:22;12.35;;;9.10;;
76373;SDS011;65197;50.164;8.012;2023-07-29T02:31:48;13.10;;;9.40;;
76373;SDS011;65197;50.164;8.012;2023-07-29T02:34:13;14.35;;;9.02;;
76373;SDS011;65197;50.164;8.012;2023-07-29T02:36:39;13.20;;;9.98;;
76373;SDS011;65197;50.164;8.012;2023-07-29T02:39:04;15.55;;;10.00;;
76373;SDS011;65197;50.164;8.012;2023-07-29T02:41:31;14.45;;;10.60;;
76373;SDS011;65197;50.164;8.012;2023-07-29T02:43:56;17.23;;;10.40;;
76373;SDS011;65197;50.164;8.012;2023-07-29T02:46:22;22.88;;;10.38;;
76373;SDS011;65197;50.164;8.012;2023-07-29T02:48:47;16.13;;;10.60;;
76373;SDS011;65197;50.164;8.012;2023-07-29T02:51:12;14.70;;;9.63;;
76373;SDS011;65197;50.164;8.012;2023-07-29T02:53:38;15.43;;;10.40;;
76373;SDS011;65197;50.164;8.012;2023-07-29T02:56:03;12.55;;;9.50;;
76373;SDS011;65197;50.164;8.012;2023-07-29T02:58:29;14.05;;;10.00;;
76373;SDS011;65197;50.164;8.012;2023-07-29T03:01:01;12.95;;;9.30;;
76373;SDS011;65197;50.164;8.012;2023-07-29T03:03:28;12.50;;;8.85;;
76373;SDS011;65197;50.164;8.012;2023-07-29T03:06:05;13.13;;;9.57;;
76373;SDS011;65197;50.164;8.012;2023-07-29T03:08:31;10.23;;;7.90;;
76373;SDS011;65197;50.164;8.012;2023-07-29T03:10:57;11.77;;;8.40;;
76373;SDS011;65197;50.164;8.012;2023-07-29T03:13:23;12.02;;;8.80;;
76373;SDS011;65197;50.164;8.012;2023-07-29T03:15:48;12.23;;;8.80;;
76373;SDS011;65197;50.164;8.012;2023-07-29T03:18:14;13.68;;;9.23;;
76373;SDS011;65197;50.164;8.012;2023-07-29T03:20:40;10.93;;;8.27;;
76373;SDS011;65197;50.164;8.012;2023-07-29T03:23:05;14.40;;;9.05;;
76373;SDS011;65197;50.164;8.012;2023-07-29T03:25:31;12.10;;;8.82;;
76373;SDS011;65197;50.164;8.012;2023-07-29T03:27:56;13.52;;;9.68;;
76373;SDS011;65197;50.164;8.012;2023-07-29T03:30:22;20.23;;;9.50;;
76373;SDS011;65197;50.164;8.012;2023-07-29T03:32:48;39.35;;;11.05;;
76373;SDS011;65197;50.164;8.012;2023-07-29T03:35:14;41.83;;;10.40;;
76373;SDS011;65197;50.164;8.012;2023-07-29T03:37:39;20.25;;;9.52;;
76373;SDS011;65197;50.164;8.012;2023-07-29T03:40:05;23.52;;;9.48;;
76373;SDS011;65197;50.164;8.012;2023-07-29T03:42:32;57.97;;;12.45;;
76373;SDS011;65197;50.164;8.012;2023-07-29T03:44:57;29.70;;;10.18;;
76373;SDS011;65197;50.164;8.012;2023-07-29T03:47:22;88.43;;;14.40;;
76373;SDS011;65197;50.164;8.012;2023-07-29T03:49:48;22.48;;;10.32;;
76373;SDS011;65197;50.164;8.012;2023-07-29T03:52:13;64.45;;;13.13;;
76373;SDS011;65197;50.164;8.012;2023-07-29T03:54:39;52.80;;;12.25;;
76373;SDS011;65197;50.164;8.012;2023-07-29T03:57:04;143.95;;;17.63;;
76373;SDS011;65197;50.164;8.012;2023-07-29T03:59:30;64.85;;;13.38;;
76373;SDS011;65197;50.164;8.012;2023-07-29T04:01:56;148.75;;;17.02;;
76373;SDS011;65197;50.164;8.012;2023-07-29T04:04:21;98.32;;;16.65;;
76373;SDS011;65197;50.164;8.012;2023-07-29T04:06:46;89.47;;;14.52;;
76373;SDS011;65197;50.164;8.012;2023-07-29T04:09:12;58.72;;;12.20;;
76373;SDS011;65197;50.164;8.012;2023-07-29T04:11:38;136.38;;;19.40;;
76373;SDS011;65197;50.164;8.012;2023-07-29T04:14:03;150.80;;;18.50;;
76373;SDS011;65197;50.164;8.012;2023-07-29T04:16:28;136.00;;;19.25;;
76373;SDS011;65197;50.164;8.012;2023-07-29T04:18:54;112.55;;;15.60;;
76373;SDS011;65197;50.164;8.012;2023-07-29T04:21:19;98.57;;;14.60;;
76373;SDS011;65197;50.164;8.012;2023-07-29T04:23:45;76.18;;;13.43;;
76373;SDS011;65197;50.164;8.012;2023-07-29T04:26:10;52.90;;;12.75;;
76373;SDS011;65197;50.164;8.012;2023-07-29T04:28:36;39.92;;;10.98;;
76373;SDS011;65197;50.164;8.012;2023-07-29T04:31:01;25.58;;;10.77;;
76373;SDS011;65197;50.164;8.012;2023-07-29T04:33:27;38.97;;;10.93;;
76373;SDS011;65197;50.164;8.012;2023-07-29T04:35:53;56.10;;;13.55;;
76373;SDS011;65197;50.164;8.012;2023-07-29T04:38:19;20.60;;;9.95;;
76373;SDS011;65197;50.164;8.012;2023-07-29T04:40:44;16.27;;;10.13;;
76373;SDS011;65197;50.164;8.012;2023-07-29T04:43:10;14.35;;;10.00;;
76373;SDS011;65197;50.164;8.012;2023-07-29T04:45:35;13.80;;;9.38;;
76373;SDS011;65197;50.164;8.012;2023-07-29T04:48:01;12.57;;;9.50;;
76373;SDS011;65197;50.164;8.012;2023-07-29T04:50:26;15.63;;;9.65;;
76373;SDS011;65197;50.164;8.012;2023-07-29T04:52:51;13.88;;;9.32;;
76373;SDS011;65197;50.164;8.012;2023-07-29T04:55:18;12.82;;;9.10;;
76373;SDS011;65197;50.164;8.012;2023-07-29T04:57:43;9.82;;;7.72;;
76373;SDS011;65197;50.164;8.012;2023-07-29T05:00:09;10.88;;;8.07;;
76373;SDS011;65197;50.164;8.012;2023-07-29T05:02:34;11.45;;;8.27;;
76373;SDS011;65197;50.164;8.012;2023-07-29T05:05:00;10.45;;;7.82;;
76373;SDS011;65197;50.164;8.012;2023-07-29T05:07:25;11.10;;;8.23;;
76373;SDS011;65197;50.164;8.012;2023-07-29T05:09:51;11.30;;;8.82;;
76373;SDS011;65197;50.164;8.012;2023-07-29T05:12:16;10.48;;;7.80;;
76373;SDS011;65197;50.164;8.012;2023-07-29T05:14:41;9.82;;;7.72;;
76373;SDS011;65197;50.164;8.012;2023-07-29T05:17:07;10.65;;;7.80;;
76373;SDS011;65197;50.164;8.012;2023-07-29T05:19:32;9.68;;;7.22;;
76373;SDS011;65197;50.164;8.012;2023-07-29T05:21:58;8.85;;;7.30;;
76373;SDS011;65197;50.164;8.012;2023-07-29T05:24:23;9.13;;;7.75;;
76373;SDS011;65197;50.164;8.012;2023-07-29T05:26:49;9.35;;;7.57;;
76373;SDS011;65197;50.164;8.012;2023-07-29T05:29:14;11.07;;;7.18;;
76373;SDS011;65197;50.164;8.012;2023-07-29T05:31:40;10.02;;;7.13;;
76373;SDS011;65197;50.164;8.012;2023-07-29T05:34:05;8.57;;;7.43;;
76373;SDS011;65197;50.164;8.012;2023-07-29T05:36:31;8.93;;;7.25;;
76373;SDS011;65197;50.164;8.012;2023-07-29T05:38:56;8.88;;;7.20;;
76373;SDS011;65197;50.164;8.012;2023-07-29T05:41:21;11.73;;;7.80;;
76373;SDS011;65197;50.164;8.012;2023-07-29T05:43:47;11.07;;;9.18;;
76373;SDS011;65197;50.164;8.012;2023-07-29T05:46:12;9.63;;;7.75;;
76373;SDS011;65197;50.164;8.012;2023-07-29T05:48:38;10.75;;;7.53;;
76373;SDS011;65197;50.164;8.012;2023-07-29T05:51:03;9.10;;;6.97;;
76373;SDS011;65197;50.164;8.012;2023-07-29T05:53:31;11.70;;;8.15;;
76373;SDS011;65197;50.164;8.012;2023-07-29T05:55:57;10.30;;;7.72;;
76373;SDS011;65197;50.164;8.012;2023-07-29T05:58:22;10.35;;;7.20;;
76373;SDS011;65197;50.164;8.012;2023-07-29T06:00:48;8.38;;;6.63;;
76373;SDS011;65197;50.164;8.012;2023-07-29T06:03:13;10.82;;;7.35;;
76373;SDS011;65197;50.164;8.012;2023-07-29T06:05:39;9.63;;;7.38;;
76373;SDS011;65197;50.164;8.012;2023-07-29T06:08:04;11.85;;;7.78;;
76373;SDS011;65197;50.164;8.012;2023-07-29T06:10:30;12.73;;;7.88;;
76373;SDS011;65197;50.164;8.012;2023-07-29T06:12:55;8.75;;;6.85;;
76373;SDS011;65197;50.164;8.012;2023-07-29T06:15:21;12.52;;;7.43;;
76373;SDS011;65197;50.164;8.012;2023-07-29T06:17:47;9.88;;;7.45;;
76373;SDS011;65197;50.164;8.012;2023-07-29T06:20:13;9.55;;;7.50;;
76373;SDS011;65197;50.164;8.012;2023-07-29T06:22:39;9.85;;;8.00;;
76373;SDS011;65197;50.164;8.012;2023-07-29T06:25:04;11.70;;;8.15;;
76373;SDS011;65197;50.164;8.012;2023-07-29T06:27:29;22.25;;;9.40;;
76373;SDS011;65197;50.164;8.012;2023-07-29T06:29:55;11.73;;;7.80;;
76373;SDS011;65197;50.164;8.012;2023-07-29T06:32:20;14.93;;;8.93;;
76373;SDS011;65197;50.164;8.012;2023-07-29T06:34:46;21.88;;;8.30;;
76373;SDS011;65197;50.164;8.012;2023-07-29T06:37:11;14.55;;;9.60;;
76373;SDS011;65197;50.164;8.012;2023-07-29T06:39:36;109.13;;;18.45;;
76373;SDS011;65197;50.164;8.012;2023-07-29T06:42:02;148.30;;;18.52;;
76373;SDS011;65197;50.164;8.012;2023-07-29T06:44:28;135.38;;;17.45;;
76373;SDS011;65197;50.164;8.012;2023-07-29T06:46:53;16.67;;;8.13;;
76373;SDS011;65197;50.164;8.012;2023-07-29T06:49:20;34.28;;;10.65;;
76373;SDS011;65197;50.164;8.012;2023-07-29T06:51:45;106.45;;;13.80;;
76373;SDS011;65197;50.164;8.012;2023-07-29T06:54:10;12.80;;;8.75;;
76373;SDS011;65197;50.164;8.012;2023-07-29T06:56:36;13.60;;;8.75;;
76373;SDS011;65197;50.164;8.012;2023-07-29T06:59:02;16.73;;;10.10;;
76373;SDS011;65197;50.164;8.012;2023-07-29T07:01:27;12.70;;;8.10;;
76373;SDS011;65197;50.164;8.012;2023-07-29T07:03:52;12.30;;;9.02;;
76373;SDS011;65197;50.164;8.012;2023-07-29T07:06:20;10.30;;;8.60;;
76373;SDS011;65197;50.164;8.012;2023-07-29T07:08:47;10.93;;;8.63;;
76373;SDS011;65197;50.164;8.012;2023-07-29T07:11:12;13.23;;;9.35;;
76373;SDS011;65197;50.164;8.012;2023-07-29T07:13:38;13.32;;;9.80;;
76373;SDS011;65197;50.164;8.012;2023-07-29T07:16:03;12.50;;;8.73;;
76373;SDS011;65197;50.164;8.012;2023-07-29T07:18:29;9.93;;;7.93;;
76373;SDS011;65197;50.164;8.012;2023-07-29T07:20:54;17.52;;;7.13;;
76373;SDS011;65197;50.164;8.012;2023-07-29T07:23:20;8.90;;;7.57;;
76373;SDS011;65197;50.164;8.012;2023-07-29T07:25:45;8.50;;;6.50;;
76373;SDS011;65197;50.164;8.012;2023-07-29T07:28:11;9.32;;;7.35;;
76373;SDS011;65197;50.164;8.012;2023-07-29T07:30:39;9.00;;;7.63;;
76373;SDS011;65197;50.164;8.012;2023-07-29T07:33:06;8.93;;;7.53;;
76373;SDS011;65197;50.164;8.012;2023-07-29T07:35:32;8.90;;;7.70;;
76373;SDS011;65197;50.164;8.012;2023-07-29T07:37:57;8.48;;;7.00;;
76373;SDS011;65197;50.164;8.012;2023-07-29T07:40:23;8.13;;;6.07;;
76373;SDS011;65197;50.164;8.012;2023-07-29T07:42:49;9.27;;;6.60;;
76373;SDS011;65197;50.164;8.012;2023-07-29T07:45:14;9.40;;;6.10;;
76373;SDS011;65197;50.164;8.012;2023-07-29T07:47:40;5.60;;;4.80;;
76373;SDS011;65197;50.164;8.012;2023-07-29T07:50:05;7.00;;;4.40;;
76373;SDS011;65197;50.164;8.012;2023-07-29T07:52:30;5.55;;;4.55;;
76373;SDS011;65197;50.164;8.012;2023-07-29T07:54:56;4.63;;;3.65;;
76373;SDS011;65197;50.164;8.012;2023-07-29T07:57:21;4.75;;;3.40;;
76373;SDS011;65197;50.164;8.012;2023-07-29T07:59:47;4.50;;;3.65;;
76373;SDS011;65197;50.164;8.012;2023-07-29T08:02:12;4.00;;;3.60;;
76373;SDS011;65197;50.164;8.012;2023-07-29T08:04:38;4.55;;;3.75;;
76373;SDS011;65197;50.164;8.012;2023-07-29T08:07:03;4.30;;;3.55;;
76373;SDS011;65197;50.164;8.012;2023-07-29T08:09:29;6.57;;;3.58;;
76373;SDS011;65197;50.164;8.012;2023-07-29T08:11:54;4.38;;;3.58;;
76373;SDS011;65197;50.164;8.012;2023-07-29T08:14:19;3.67;;;3.20;;
76373;SDS011;65197;50.164;8.012;2023-07-29T08:16:45;3.95;;;2.90;;
76373;SDS011;65197;50.164;8.012;2023-07-29T08:19:10;4.25;;;2.70;;
76373;SDS011;65197;50.164;8.012;2023-07-29T08:21:36;3.60;;;2.65;;
76373;SDS011;65197;50.164;8.012;2023-07-29T08:24:01;6.07;;;3.05;;
76373;SDS011;65197;50.164;8.012;2023-07-29T08:26:27;3.80;;;2.50;;
76373;SDS011;65197;50.164;8.012;2023-07-29T08:28:52;3.30;;;2.58;;
76373;SDS011;65197;50.164;8.012;2023-07-29T08:31:18;4.85;;;2.85;;
76373;SDS011;65197;50.164;8.012;2023-07-29T08:33:43;3.05;;;2.50;;
76373;SDS011;65197;50.164;8.012;2023-07-29T08:36:08;3.05;;;2.50;;
76373;SDS011;65197;50.164;8.012;2023-07-29T08:38:34;3.80;;;2.40;;
76373;SDS011;65197;50.164;8.012;2023-07-29T08:41:04;2.83;;;2.15;;
76373;SDS011;65197;50.164;8.012;2023-07-29T08:43:38;3.28;;;2.45;;
76373;SDS011;65197;50.164;8.012;2023-07-29T08:46:06;3.83;;;2.10;;
76373;SDS011;65197;50.164;8.012;2023-07-29T08:48:32;2.58;;;2.20;;
76373;SDS011;65197;50.164;8.012;2023-07-29T08:51:04;4.13;;;2.00;;
76373;SDS011;65197;50.164;8.012;2023-07-29T08:53:31;3.55;;;2.10;;
76373;SDS011;65197;50.164;8.012;2023-07-29T08:55:56;3.40;;;2.08;;
76373;SDS011;65197;50.164;8.012;2023-07-29T08:58:23;3.70;;;1.98;;
76373;SDS011;65197;50.164;8.012;2023-07-29T09:00:49;3.00;;;1.98;;
76373;SDS011;65197;50.164;8.012;2023-07-29T09:03:15;4.45;;;2.10;;
76373;SDS011;65197;50.164;8.012;2023-07-29T09:05:41;2.95;;;1.65;;
76373;SDS011;65197;50.164;8.012;2023-07-29T09:08:06;2.33;;;1.50;;
76373;SDS011;65197;50.164;8.012;2023-07-29T09:10:36;3.22;;;1.90;;
76373;SDS011;65197;50.164;8.012;2023-07-29T09:13:02;3.20;;;2.03;;
76373;SDS011;65197;50.164;8.012;2023-07-29T09:15:29;4.25;;;1.92;;
76373;SDS011;65197;50.164;8.012;2023-07-29T09:17:56;2.33;;;1.90;;
76373;SDS011;65197;50.164;8.012;2023-07-29T09:20:23;2.60;;;1.92;;
76373;SDS011;65197;50.164;8.012;2023-07-29T09:22:53;4.35;;;2.20;;
76373;SDS011;65197;50.164;8.012;2023-07-29T09:25:26;2.85;;;1.98;;
76373;SDS011;65197;50.164;8.012;2023-07-29T09:27:52;2.95;;;1.98;;
76373;SDS011;65197;50.164;8.012;2023-07-29T09:30:23;2.72;;;1.85;;
76373;SDS011;65197;50.164;8.012;2023-07-29T09:32:52;2.85;;;2.10;;
76373;SDS011;65197;50.164;8.012;2023-07-29T09:35:22;3.67;;;2.40;;
76373;SDS011;65197;50.164;8.012;2023-07-29T09:37:47;2.33;;;1.67;;
76373;SDS011;65197;50.164;8.012;2023-07-29T09:40:13;2.70;;;2.20;;
76373;SDS011;65197;50.164;8.012;2023-07-29T09:42:40;4.38;;;2.25;;
76373;SDS011;65197;50.164;8.012;2023-07-29T09:45:18;3.70;;;2.20;;
76373;SDS011;65197;50.164;8.012;2023-07-29T09:47:45;4.57;;;2.50;;
76373;SDS011;65197;50.164;8.012;2023-07-29T09:50:11;4.97;;;2.38;;
76373;SDS011;65197;50.164;8.012;2023-07-29T09:52:37;3.80;;;2.00;;
76373;SDS011;65197;50.164;8.012;2023-07-29T09:55:02;2.40;;;1.85;;
76373;SDS011;65197;50.164;8.012;2023-07-29T09:57:28;2.40;;;1.80;;
76373;SDS011;65197;50.164;8.012;2023-07-29T09:59:55;2.95;;;1.80;;
76373;SDS011;65197;50.164;8.012;2023-07-29T10:02:21;2.80;;;1.83;;
76373;SDS011;65197;50.164;8.012;2023-07-29T10:04:47;3.47;;;2.10;;
76373;SDS011;65197;50.164;8.012;2023-07-29T10:07:14;4.07;;;1.95;;
76373;SDS011;65197;50.164;8.012;2023-07-29T10:09:40;4.57;;;2.08;;
76373;SDS011;65197;50.164;8.012;2023-07-29T10:12:07;4.55;;;1.88;;
76373;SDS011;65197;50.164;8.012;2023-07-29T10:14:34;2.53;;;2.05;;
76373;SDS011;65197;50.164;8.012;2023-07-29T10:17:00;2.28;;;1.75;;
76373;SDS011;65197;50.164;8.012;2023-07-29T10:19:26;4.43;;;2.00;;
76373;SDS011;65197;50.164;8.012;2023-07-29T10:21:52;3.60;;;2.17;;
76373;SDS011;65197;50.164;8.012;2023-07-29T10:24:22;3.85;;;2.08;;
76373;SDS011;65197;50.164;8.012;2023-07-29T10:26:53;4.38;;;1.98;;
76373;SDS011;65197;50.164;8.012;2023-07-29T10:29:22;4.25;;;1.90;;
76373;SDS011;65197;50.164;8.012;2023-07-29T10:31:49;3.88;;;1.90;;
76373;SDS011;65197;50.164;8.012;2023-07-29T10:34:22;2.58;;;1.85;;
76373;SDS011;65197;50.164;8.012;2023-07-29T10:36:49;2.88;;;1.70;;
76373;SDS011;65197;50.164;8.012;2023-07-29T10:39:15;3.75;;;1.90;;
76373;SDS011;65197;50.164;8.012;2023-07-29T10:41:59;4.28;;;1.80;;
76373;SDS011;65197;50.164;8.012;2023-07-29T10:47:13;2.58;;;1.80;;
76373;SDS011;65197;50.164;8.012;2023-07-29T10:49:46;2.10;;;1.63;;
76373;SDS011;65197;50.164;8.012;2023-07-29T10:52:14;5.78;;;1.80;;
76373;SDS011;65197;50.164;8.012;2023-07-29T10:54:42;3.45;;;1.77;;
76373;SDS011;65197;50.164;8.012;2023-07-29T10:57:12;2.92;;;1.70;;
76373;SDS011;65197;50.164;8.012;2023-07-29T10:59:39;2.50;;;1.70;;
76373;SDS011;65197;50.164;8.012;2023-07-29T11:02:11;2.03;;;1.60;;
76373;SDS011;65197;50.164;8.012;2023-07-29T11:04:51;3.47;;;1.70;;
76373;SDS011;65197;50.164;8.012;2023-07-29T11:09:42;2.33;;;1.73;;
76373;SDS011;65197;50.164;8.012;2023-07-29T11:15:03;3.40;;;1.60;;
76373;SDS011;65197;50.164;8.012;2023-07-29T11:20:07;3.55;;;1.90;;
76373;SDS011;65197;50.164;8.012;2023-07-29T11:22:33;2.45;;;1.70;;
76373;SDS011;65197;50.164;8.012;2023-07-29T11:24:59;2.20;;;1.70;;
76373;SDS011;65197;50.164;8.012;2023-07-29T11:27:25;2.25;;;1.70;;
76373;SDS011;65197;50.164;8.012;2023-07-29T11:29:50;2.70;;;1.80;;
76373;SDS011;65197;50.164;8.012;2023-07-29T11:32:22;2.40;;;1.90;;
76373;SDS011;65197;50.164;8.012;2023-07-29T11:34:47;2.67;;;1.88;;
76373;SDS011;65197;50.164;8.012;2023-07-29T11:37:13;3.33;;;1.95;;
76373;SDS011;65197;50.164;8.012;2023-07-29T11:39:42;2.30;;;1.77;;
76373;SDS011;65197;50.164;8.012;2023-07-29T11:42:12;2.08;;;1.50;;
76373;SDS011;65197;50.164;8.012;2023-07-29T11:44:39;3.28;;;1.75;;
76373;SDS011;65197;50.164;8.012;2023-07-29T11:47:08;2.88;;;1.58;;
76373;SDS011;65197;50.164;8.012;2023-07-29T11:49:38;2.55;;;1.58;;
76373;SDS011;65197;50.164;8.012;2023-07-29T11:52:08;4.75;;;1.70;;
76373;SDS011;65197;50.164;8.012;2023-07-29T11:54:35;4.35;;;2.20;;
76373;SDS011;65197;50.164;8.012;2023-07-29T11:57:03;2.92;;;1.98;;
76373;SDS011;65197;50.164;8.012;2023-07-29T11:59:30;3.45;;;2.05;;
76373;SDS011;65197;50.164;8.012;2023-07-29T12:01:58;2.88;;;1.70;;
76373;SDS011;65197;50.164;8.012;2023-07-29T12:04:25;2.72;;;2.10;;
76373;SDS011;65197;50.164;8.012;2023-07-29T12:06:51;2.67;;;2.20;;
76373;SDS011;65197;50.164;8.012;2023-07-29T12:09:16;2.97;;;1.90;;
76373;SDS011;65197;50.164;8.012;2023-07-29T12:11:42;2.85;;;2.08;;
76373;SDS011;65197;50.164;8.012;2023-07-29T12:14:07;2.33;;;1.70;;
76373;SDS011;65197;50.164;8.012;2023-07-29T12:16:40;2.92;;;1.90;;
76373;SDS011;65197;50.164;8.012;2023-07-29T12:19:08;3.95;;;1.85;;
76373;SDS011;65197;50.164;8.012;2023-07-29T12:21:38;3.50;;;1.88;;
76373;SDS011;65197;50.164;8.012;2023-07-29T12:24:03;2.97;;;2.03;;
76373;SDS011;65197;50.164;8.012;2023-07-29T12:26:29;2.55;;;1.90;;
76373;SDS011;65197;50.164;8.012;2023-07-29T12:28:55;2.70;;;2.00;;
76373;SDS011;65197;50.164;8.012;2023-07-29T12:31:21;3.13;;;1.83;;
76373;SDS011;65197;50.164;8.012;2023-07-29T12:33:55;2.72;;;1.90;;
76373;SDS011;65197;50.164;8.012;2023-07-29T12:36:21;2.33;;;1.80;;
76373;SDS011;65197;50.164;8.012;2023-07-29T12:38:47;2.63;;;1.90;;
76373;SDS011;65197;50.164;8.012;2023-07-29T12:41:12;3.22;;;2.00;;
76373;SDS011;65197;50.164;8.012;2023-07-29T12:43:37;2.60;;;1.90;;
76373;SDS011;65197;50.164;8.012;2023-07-29T12:46:04;2.95;;;1.80;;
76373;SDS011;65197;50.164;8.012;2023-07-29T12:48:29;3.38;;;1.90;;
76373;SDS011;65197;50.164;8.012;2023-07-29T12:50:54;4.45;;;2.00;;
76373;SDS011;65197;50.164;8.012;2023-07-29T12:53:20;4.38;;;2.00;;
76373;SDS011;65197;50.164;8.012;2023-07-29T12:55:45;4.57;;;2.00;;
76373;SDS011;65197;50.164;8.012;2023-07-29T12:58:10;3.60;;;1.90;;
76373;SDS011;65197;50.164;8.012;2023-07-29T13:00:36;3.15;;;1.83;;
76373;SDS011;65197;50.164;8.012;2023-07-29T13:03:02;4.00;;;1.67;;
76373;SDS011;65197;50.164;8.012;2023-07-29T13:05:30;2.67;;;1.95;;
76373;SDS011;65197;50.164;8.012;2023-07-29T13:07:56;2.10;;;1.63;;
76373;SDS011;65197;50.164;8.012;2023-07-29T13:10:21;2.50;;;1.80;;
76373;SDS011;65197;50.164;8.012;2023-07-29T13:12:46;2.95;;;1.80;;
76373;SDS011;65197;50.164;8.012;2023-07-29T13:15:12;2.63;;;1.90;;
76373;SDS011;65197;50.164;8.012;2023-07-29T13:17:37;2.47;;;1.85;;
76373;SDS011;65197;50.164;8.012;2023-07-29T13:20:03;2.92;;;1.63;;
76373;SDS011;65197;50.164;8.012;2023-07-29T13:22:29;2.67;;;1.73;;
76373;SDS011;65197;50.164;8.012;2023-07-29T13:24:54;2.05;;;1.50;;
76373;SDS011;65197;50.164;8.012;2023-07-29T13:27:19;3.17;;;1.83;;
76373;SDS011;65197;50.164;8.012;2023-07-29T13:29:45;3.53;;;1.83;;
76373;SDS011;65197;50.164;8.012;2023-07-29T13:32:11;2.30;;;1.80;;
76373;SDS011;65197;50.164;8.012;2023-07-29T13:34:37;2.60;;;1.67;;
76373;SDS011;65197;50.164;8.012;2023-07-29T13:37:05;3.58;;;1.85;;
76373;SDS011;65197;50.164;8.012;2023-07-29T13:39:30;4.97;;;1.95;;
76373;SDS011;65197;50.164;8.012;2023-07-29T13:41:56;2.70;;;2.00;;
76373;SDS011;65197;50.164;8.012;2023-07-29T13:44:21;2.78;;;1.73;;
76373;SDS011;65197;50.164;8.012;2023-07-29T13:46:47;2.97;;;1.90;;
76373;SDS011;65197;50.164;8.012;2023-07-29T13:49:12;3.70;;;1.90;;
76373;SDS011;65197;50.164;8.012;2023-07-29T13:51:37;2.25;;;1.60;;
76373;SDS011;65197;50.164;8.012;2023-07-29T13:54:03;2.63;;;1.77;;
76373;SDS011;65197;50.164;8.012;2023-07-29T13:56:28;2.50;;;1.70;;
76373;SDS011;65197;50.164;8.012;2023-07-29T13:58:53;3.67;;;1.95;;
76373;SDS011;65197;50.164;8.012;2023-07-29T14:01:19;3.40;;;2.00;;
76373;SDS011;65197;50.164;8.012;2023-07-29T14:03:44;2.53;;;1.73;;
76373;SDS011;65197;50.164;8.012;2023-07-29T14:06:10;3.17;;;1.80;;
76373;SDS011;65197;50.164;8.012;2023-07-29T14:08:35;2.63;;;1.70;;
76373;SDS011;65197;50.164;8.012;2023-07-29T14:11:01;2.65;;;1.90;;
76373;SDS011;65197;50.164;8.012;2023-07-29T14:13:26;2.20;;;1.73;;
76373;SDS011;65197;50.164;8.012;2023-07-29T14:15:51;2.28;;;1.50;;
76373;SDS011;65197;50.164;8.012;2023-07-29T14:18:17;2.50;;;1.60;;
76373;SDS011;65197;50.164;8.012;2023-07-29T14:20:42;3.03;;;2.00;;
76373;SDS011;65197;50.164;8.012;2023-07-29T14:23:08;2.47;;;1.90;;
76373;SDS011;65197;50.164;8.012;2023-07-29T14:25:33;2.83;;;1.95;;
76373;SDS011;65197;50.164;8.012;2023-07-29T14:27:59;2.80;;;1.50;;
76373;SDS011;65197;50.164;8.012;2023-07-29T14:30:24;2.45;;;1.73;;
76373;SDS011;65197;50.164;8.012;2023-07-29T14:32:49;3.00;;;1.67;;
76373;SDS011;65197;50.164;8.012;2023-07-29T14:35:15;2.88;;;1.83;;
76373;SDS011;65197;50.164;8.012;2023-07-29T14:37:40;3.10;;;1.70;;
76373;SDS011;65197;50.164;8.012;2023-07-29T14:40:06;2.88;;;1.90;;
76373;SDS011;65197;50.164;8.012;2023-07-29T14:42:32;2.70;;;1.98;;
76373;SDS011;65197;50.164;8.012;2023-07-29T14:44:57;2.47;;;1.75;;
76373;SDS011;65197;50.164;8.012;2023-07-29T14:47:23;3.08;;;1.80;;
76373;SDS011;65197;50.164;8.012;2023-07-29T14:49:48;2.30;;;1.63;;
76373;SDS011;65197;50.164;8.012;2023-07-29T14:52:13;2.17;;;1.63;;
76373;SDS011;65197;50.164;8.012;2023-07-29T14:54:39;2.92;;;1.88;;
76373;SDS011;65197;50.164;8.012;2023-07-29T14:57:05;2.60;;;1.77;;